createdAt,value
2022-12-18T00:04:52.126Z,80.49
2022-12-18T00:09:59.254Z,80.52
2022-12-18T00:15:07.497Z,80.66
2022-12-18T00:20:15.261Z,80.49
2022-12-18T00:25:22.760Z,80.51
2022-12-18T00:30:30.433Z,80.48
2022-12-18T00:35:37.924Z,80.58
2022-12-18T00:40:45.057Z,80.70
2022-12-18T00:45:53.563Z,80.68
2022-12-18T00:51:00.924Z,80.64
2022-12-18T00:56:08.524Z,80.67
2022-12-18T01:01:15.671Z,80.63
2022-12-18T01:06:22.786Z,80.61
2022-12-18T01:11:30.056Z,80.58
2022-12-18T01:16:37.675Z,80.54
2022-12-18T01:21:45.361Z,80.59
2022-12-18T01:26:52.379Z,80.75
2022-12-18T01:31:59.944Z,80.80
2022-12-18T01:37:07.784Z,80.87
2022-12-18T01:42:13.949Z,80.83
2022-12-18T01:47:41.447Z,80.72
2022-12-18T01:52:52.133Z,80.70
2022-12-18T01:58:02.665Z,80.68
2022-12-18T02:03:09.957Z,80.69
2022-12-18T02:08:23.142Z,80.76
2022-12-18T02:13:38.861Z,80.89
2022-12-18T02:18:50.992Z,80.91
2022-12-18T02:24:08.540Z,80.88
2022-12-18T02:29:20.242Z,80.87
2022-12-18T02:34:31.445Z,80.81
2022-12-18T02:39:40.936Z,80.71
2022-12-18T02:44:52.304Z,80.81
2022-12-18T02:50:12.378Z,80.72
2022-12-18T02:55:30.342Z,80.67
2022-12-18T03:00:46.340Z,80.74
2022-12-18T03:05:58.978Z,80.77
2022-12-18T03:11:09.894Z,80.92
2022-12-18T03:16:24.677Z,80.74
2022-12-18T03:21:36.529Z,80.76
2022-12-18T03:26:47.079Z,80.72
2022-12-18T03:32:00.762Z,80.80
2022-12-18T03:37:08.785Z,80.79
2022-12-18T03:42:28.068Z,80.75
2022-12-18T03:47:52.382Z,80.93
2022-12-18T03:53:06.374Z,81.02
2022-12-18T03:58:18.387Z,80.94
2022-12-18T04:03:36.607Z,80.91
2022-12-18T04:08:44.955Z,81.00
2022-12-18T04:13:57.414Z,80.84
2022-12-18T04:19:04.840Z,80.84
2022-12-18T04:24:17.260Z,80.86
2022-12-18T04:29:32.407Z,80.85
2022-12-18T04:34:40.072Z,80.78
2022-12-18T04:39:46.104Z,80.81
2022-12-18T04:45:00.109Z,80.89
2022-12-18T04:50:08.415Z,81.16
2022-12-18T04:55:15.477Z,81.05
2022-12-18T05:00:23.164Z,80.88
2022-12-18T05:05:28.621Z,80.76
2022-12-18T05:10:38.270Z,80.82
2022-12-18T05:15:53.742Z,80.79
2022-12-18T05:21:00.868Z,80.69
2022-12-18T05:26:09.530Z,80.64
2022-12-18T05:31:17.312Z,80.59
2022-12-18T05:36:24.444Z,80.76
2022-12-18T05:41:31.543Z,80.95
2022-12-18T05:46:38.672Z,80.93
2022-12-18T05:51:48.583Z,80.74
2022-12-18T05:56:55.860Z,80.82
2022-12-18T06:02:03.068Z,80.71
2022-12-18T06:07:10.172Z,80.81
2022-12-18T06:12:17.304Z,80.66
2022-12-18T06:17:24.414Z,80.60
2022-12-18T06:22:32.638Z,80.66
2022-12-18T06:27:39.896Z,80.44
2022-12-18T06:32:50.460Z,80.56
2022-12-18T06:38:00.279Z,80.68
2022-12-18T06:43:07.451Z,80.68
2022-12-18T06:48:14.517Z,80.60
2022-12-18T06:53:21.652Z,80.61
2022-12-18T06:58:29.068Z,80.55
2022-12-18T07:03:36.194Z,80.34
2022-12-18T07:08:43.394Z,80.47
2022-12-18T07:13:50.545Z,80.49
2022-12-18T07:18:58.160Z,80.48
2022-12-18T07:24:05.674Z,80.48
2022-12-18T07:29:12.754Z,80.69
2022-12-18T07:34:19.941Z,80.71
2022-12-18T07:39:27.031Z,80.66
2022-12-18T07:44:34.014Z,80.68
2022-12-18T07:49:41.076Z,80.53
2022-12-18T07:54:50.062Z,80.45
2022-12-18T07:59:57.173Z,80.43
2022-12-18T08:05:04.376Z,80.47
2022-12-18T08:10:12.394Z,80.39
2022-12-18T08:15:19.905Z,80.46
2022-12-18T08:20:27.003Z,80.55
2022-12-18T08:25:34.159Z,80.57
2022-12-18T08:30:41.445Z,80.61
2022-12-18T08:35:47.331Z,80.56
2022-12-18T08:41:02.405Z,80.59
2022-12-18T08:46:10.611Z,80.51
2022-12-18T08:51:19.878Z,80.52
2022-12-18T08:56:27.011Z,80.47
2022-12-18T09:01:34.404Z,80.62
2022-12-18T09:06:42.701Z,80.55
2022-12-18T09:11:49.863Z,80.63
2022-12-18T09:16:56.042Z,80.70
2022-12-18T09:22:03.333Z,80.63
2022-12-18T09:27:10.484Z,80.66
2022-12-18T09:32:22.325Z,80.59
2022-12-18T09:37:30.014Z,80.40
2022-12-18T09:42:37.275Z,80.68
2022-12-18T09:47:47.067Z,80.91
2022-12-18T09:52:58.184Z,80.75
2022-12-18T09:58:12.540Z,80.64
2022-12-18T10:03:19.966Z,80.69
2022-12-18T10:08:36.158Z,80.72
2022-12-18T10:13:50.155Z,80.65
2022-12-18T10:19:10.062Z,80.55
2022-12-18T10:24:27.221Z,80.56
2022-12-18T10:29:34.370Z,80.41
2022-12-18T10:34:44.140Z,80.52
2022-12-18T10:40:14.304Z,80.45
2022-12-18T10:45:28.943Z,80.47
2022-12-18T10:51:09.797Z,80.38
2022-12-18T10:56:08.956Z,80.55
2022-12-18T11:01:18.341Z,80.68
2022-12-18T11:06:27.220Z,80.71
2022-12-18T11:11:35.965Z,80.63
2022-12-18T11:17:23.722Z,80.43
2022-12-18T11:22:25.633Z,80.23
2022-12-18T11:27:33.835Z,80.27
2022-12-18T11:32:43.219Z,80.34
2022-12-18T11:38:00.460Z,80.36
2022-12-18T11:43:13.132Z,80.12
2022-12-18T11:48:24.456Z,80.22
2022-12-18T11:53:32.128Z,80.46
2022-12-18T11:58:43.529Z,80.34
2022-12-18T12:04:08.457Z,80.47
2022-12-18T12:09:24.062Z,80.46
2022-12-18T12:14:44.800Z,80.34
2022-12-18T12:20:04.619Z,80.11
2022-12-18T12:25:30.160Z,80.12
2022-12-18T12:30:50.782Z,80.14
2022-12-18T12:36:06.466Z,80.13
2022-12-18T12:41:32.860Z,80.20
2022-12-18T12:46:44.014Z,80.11
2022-12-18T12:51:59.397Z,80.19
2022-12-18T12:57:14.953Z,80.22
2022-12-18T13:02:30.736Z,80.16
2022-12-18T13:07:42.935Z,80.17
2022-12-18T13:12:58.727Z,80.24
2022-12-18T13:18:23.755Z,80.19
2022-12-18T13:23:34.076Z,80.04
2022-12-18T13:28:58.180Z,80.03
2022-12-18T13:34:26.221Z,80.15
2022-12-18T13:39:38.002Z,80.11
2022-12-18T13:44:45.549Z,80.01
2022-12-18T13:49:51.132Z,80.26
2022-12-18T13:55:00.395Z,80.42
2022-12-18T14:00:29.717Z,80.33
2022-12-18T14:05:39.963Z,79.97
2022-12-18T14:10:53.449Z,80.00
2022-12-18T14:16:03.791Z,80.09
2022-12-18T14:21:22.348Z,80.31
2022-12-18T14:26:31.974Z,80.20
2022-12-18T14:31:39.896Z,80.18
2022-12-18T14:36:53.888Z,80.40
2022-12-18T14:42:01.166Z,80.39
2022-12-18T14:47:15.884Z,80.69
2022-12-18T14:52:30.102Z,80.64
2022-12-18T14:57:43.451Z,80.45
2022-12-18T15:02:54.743Z,80.36
2022-12-18T15:08:03.394Z,80.19
2022-12-18T15:13:25.640Z,80.21
2022-12-18T15:18:35.013Z,80.21
2022-12-18T15:23:51.723Z,80.31
2022-12-18T15:29:03.130Z,80.40
2022-12-18T15:34:23.732Z,80.35
2022-12-18T15:39:30.963Z,80.20
2022-12-18T15:44:38.139Z,80.29
2022-12-18T15:49:45.284Z,80.34
2022-12-18T15:55:10.088Z,80.47
2022-12-18T16:00:18.552Z,80.48
2022-12-18T16:05:25.661Z,80.54
2022-12-18T16:10:32.880Z,80.66
2022-12-18T16:15:40.238Z,80.43
2022-12-18T16:20:47.548Z,80.37
2022-12-18T16:25:54.787Z,80.43
2022-12-18T16:31:02.229Z,80.58
2022-12-18T16:36:09.056Z,80.61
2022-12-18T16:41:34.154Z,80.64
2022-12-18T16:46:44.192Z,80.70
2022-12-18T16:51:52.363Z,80.79
2022-12-18T16:57:00.811Z,80.88
2022-12-18T17:02:08.603Z,80.78
2022-12-18T17:07:16.920Z,80.93
2022-12-18T17:12:25.433Z,80.97
2022-12-18T17:17:32.876Z,81.01
2022-12-18T17:22:38.853Z,80.91
2022-12-18T17:27:46.952Z,80.83
2022-12-18T17:32:55.002Z,80.83
2022-12-18T17:38:02.479Z,81.07
2022-12-18T17:43:11.036Z,80.91
2022-12-18T17:48:18.843Z,80.86
2022-12-18T17:53:26.236Z,80.85
2022-12-18T17:58:34.070Z,80.91
2022-12-18T18:03:41.728Z,80.79
2022-12-18T18:08:49.878Z,80.86
2022-12-18T18:14:04.313Z,80.91
2022-12-18T18:19:14.130Z,80.82
2022-12-18T18:24:24.229Z,80.82
2022-12-18T18:29:31.961Z,80.94
2022-12-18T18:34:44.833Z,80.75
2022-12-18T18:39:52.108Z,80.73
2022-12-18T18:44:59.254Z,80.95
2022-12-18T18:50:07.398Z,81.06
2022-12-18T18:55:20.993Z,80.91
2022-12-18T19:00:33.086Z,80.84
2022-12-18T19:05:44.439Z,80.73
2022-12-18T19:10:59.352Z,81.70
2022-12-18T19:16:09.265Z,80.80
2022-12-18T19:21:19.708Z,80.58
2022-12-18T19:26:29.097Z,80.68
2022-12-18T19:31:42.107Z,80.76
2022-12-18T19:37:00.633Z,80.75
2022-12-18T19:42:08.170Z,80.52
2022-12-18T19:47:15.607Z,80.66
2022-12-18T19:52:25.059Z,80.77
2022-12-18T19:57:32.929Z,80.84
2022-12-18T20:02:40.167Z,81.11
2022-12-18T20:07:47.971Z,81.06
2022-12-18T20:12:55.382Z,80.93
2022-12-18T20:18:03.896Z,80.94
2022-12-18T20:23:11.313Z,80.95
2022-12-18T20:28:18.706Z,80.85
2022-12-18T20:33:25.897Z,80.88
2022-12-18T20:38:57.078Z,80.99
2022-12-18T20:44:23.574Z,81.09
2022-12-18T20:49:40.107Z,81.02
2022-12-18T20:55:06.264Z,80.95
2022-12-18T21:00:20.100Z,81.03
2022-12-18T21:05:30.147Z,81.08
2022-12-18T21:10:37.146Z,81.12
2022-12-18T21:15:45.797Z,80.92
2022-12-18T21:20:58.373Z,80.90
2022-12-18T21:26:20.853Z,81.01
2022-12-18T21:31:31.052Z,81.00
2022-12-18T21:36:38.371Z,81.00
2022-12-18T21:42:04.361Z,80.91
2022-12-18T21:47:22.387Z,80.94
2022-12-18T21:52:32.218Z,81.05
2022-12-18T21:57:41.492Z,81.02
2022-12-18T22:03:01.168Z,80.95
2022-12-18T22:08:16.720Z,81.04
2022-12-18T22:13:24.034Z,81.10
2022-12-18T22:18:31.501Z,81.08
2022-12-18T22:23:39.107Z,81.03
2022-12-18T22:29:04.152Z,81.27
2022-12-18T22:34:11.941Z,81.14
2022-12-18T22:39:21.351Z,81.04
2022-12-18T22:44:30.045Z,81.05
2022-12-18T22:49:37.626Z,81.08
2022-12-18T22:54:43.079Z,81.20
2022-12-18T22:59:50.251Z,81.18
2022-12-18T23:04:57.304Z,81.08
2022-12-18T23:10:04.487Z,81.07
2022-12-18T23:15:13.597Z,81.04
2022-12-18T23:20:23.193Z,81.12
2022-12-18T23:25:30.301Z,81.13
2022-12-18T23:30:37.458Z,81.18
2022-12-18T23:35:44.560Z,81.17
2022-12-18T23:40:51.768Z,81.24
2022-12-18T23:46:03.431Z,81.06
2022-12-18T23:51:12.438Z,81.17
2022-12-18T23:56:19.566Z,81.09
